sensor_id;sensor_type;location;lat;lon;timestamp;pressure;altitude;pressure_sealevel;temperature;humidity
43480;BME280;29067;35.492;-97.520;2022-07-05T00:01:23;96968.03;;;35.22;23.11
43480;BME280;29067;35.492;-97.520;2022-07-05T00:03:51;96965.48;;;33.48;24.02
43480;BME280;29067;35.492;-97.520;2022-07-05T00:06:19;96967.53;;;33.48;24.18
43480;BME280;29067;35.492;-97.520;2022-07-05T00:08:47;96969.40;;;32.90;24.45
43480;BME280;29067;35.492;-97.520;2022-07-05T00:11:16;96969.77;;;34.11;24.14
43480;BME280;29067;35.492;-97.520;2022-07-05T00:13:44;96974.36;;;34.03;24.38
43480;BME280;29067;35.492;-97.520;2022-07-05T00:16:12;96970.46;;;32.81;24.47
43480;BME280;29067;35.492;-97.520;2022-07-05T00:18:40;96974.78;;;32.87;24.78
43480;BME280;29067;35.492;-97.520;2022-07-05T00:21:09;96977.37;;;33.75;24.72
43480;BME280;29067;35.492;-97.520;2022-07-05T00:23:37;96975.48;;;32.87;24.83
43480;BME280;29067;35.492;-97.520;2022-07-05T00:26:05;96974.48;;;32.80;24.92
43480;BME280;29067;35.492;-97.520;2022-07-05T00:28:33;96981.02;;;32.52;25.41
43480;BME280;29067;35.492;-97.520;2022-07-05T00:31:01;96978.63;;;32.55;25.29
43480;BME280;29067;35.492;-97.520;2022-07-05T00:33:30;96979.24;;;32.73;25.28
43480;BME280;29067;35.492;-97.520;2022-07-05T00:35:58;96977.11;;;33.55;25.01
43480;BME280;29067;35.492;-97.520;2022-07-05T00:38:26;96973.91;;;33.46;25.76
43480;BME280;29067;35.492;-97.520;2022-07-05T00:40:54;96976.65;;;33.71;25.22
43480;BME280;29067;35.492;-97.520;2022-07-05T00:43:22;96978.86;;;33.61;25.41
43480;BME280;29067;35.492;-97.520;2022-07-05T00:45:50;96971.85;;;32.97;25.88
43480;BME280;29067;35.492;-97.520;2022-07-05T00:48:19;96976.52;;;33.94;24.85
43480;BME280;29067;35.492;-97.520;2022-07-05T00:50:47;96974.32;;;32.94;26.09
43480;BME280;29067;35.492;-97.520;2022-07-05T00:53:15;96982.67;;;33.20;25.61
43480;BME280;29067;35.492;-97.520;2022-07-05T00:55:44;96988.46;;;34.12;24.78
43480;BME280;29067;35.492;-97.520;2022-07-05T00:58:12;96990.91;;;33.48;25.67
43480;BME280;29067;35.492;-97.520;2022-07-05T01:00:41;96992.18;;;33.78;25.20
43480;BME280;29067;35.492;-97.520;2022-07-05T01:03:09;96985.20;;;32.61;26.26
43480;BME280;29067;35.492;-97.520;2022-07-05T01:05:38;96985.27;;;33.60;25.66
43480;BME280;29067;35.492;-97.520;2022-07-05T01:08:06;96993.88;;;33.90;25.18
43480;BME280;29067;35.492;-97.520;2022-07-05T01:10:35;96990.03;;;32.09;26.27
43480;BME280;29067;35.492;-97.520;2022-07-05T01:13:03;96994.00;;;32.49;26.56
43480;BME280;29067;35.492;-97.520;2022-07-05T01:15:31;96992.20;;;32.67;26.05
43480;BME280;29067;35.492;-97.520;2022-07-05T01:17:59;96993.57;;;32.74;26.54
43480;BME280;29067;35.492;-97.520;2022-07-05T01:20:27;96995.00;;;32.98;26.15
43480;BME280;29067;35.492;-97.520;2022-07-05T01:22:57;96991.25;;;33.26;26.60
43480;BME280;29067;35.492;-97.520;2022-07-05T01:25:27;96986.98;;;32.97;26.51
43480;BME280;29067;35.492;-97.520;2022-07-05T01:27:56;96990.48;;;32.12;26.68
43480;BME280;29067;35.492;-97.520;2022-07-05T01:30:25;96994.91;;;34.22;25.64
43480;BME280;29067;35.492;-97.520;2022-07-05T01:32:53;96996.62;;;34.26;25.57
43480;BME280;29067;35.492;-97.520;2022-07-05T01:35:21;96994.53;;;34.29;25.99
43480;BME280;29067;35.492;-97.520;2022-07-05T01:37:51;96995.61;;;32.08;26.93
43480;BME280;29067;35.492;-97.520;2022-07-05T01:40:19;96996.78;;;32.38;27.18
43480;BME280;29067;35.492;-97.520;2022-07-05T01:42:48;96999.30;;;31.83;27.37
43480;BME280;29067;35.492;-97.520;2022-07-05T01:45:17;96997.21;;;32.22;27.13
43480;BME280;29067;35.492;-97.520;2022-07-05T01:47:46;96996.28;;;32.24;27.21
43480;BME280;29067;35.492;-97.520;2022-07-05T01:50:16;96996.94;;;32.34;27.15
43480;BME280;29067;35.492;-97.520;2022-07-05T01:52:49;97000.87;;;33.26;26.83
43480;BME280;29067;35.492;-97.520;2022-07-05T01:55:18;97006.76;;;32.80;27.13
43480;BME280;29067;35.492;-97.520;2022-07-05T01:57:46;97010.20;;;31.42;27.91
43480;BME280;29067;35.492;-97.520;2022-07-05T02:00:15;97006.52;;;31.36;28.01
43480;BME280;29067;35.492;-97.520;2022-07-05T02:02:43;97010.73;;;31.14;27.96
43480;BME280;29067;35.492;-97.520;2022-07-05T02:05:12;97017.36;;;31.64;27.81
43480;BME280;29067;35.492;-97.520;2022-07-05T02:07:47;97020.00;;;32.80;27.01
43480;BME280;29067;35.492;-97.520;2022-07-05T02:10:15;97020.20;;;31.85;27.22
43480;BME280;29067;35.492;-97.520;2022-07-05T02:12:44;97021.39;;;32.20;27.61
43480;BME280;29067;35.492;-97.520;2022-07-05T02:15:12;97025.98;;;30.15;28.86
43480;BME280;29067;35.492;-97.520;2022-07-05T02:17:40;97025.57;;;31.77;27.81
43480;BME280;29067;35.492;-97.520;2022-07-05T02:20:09;97029.54;;;30.75;28.24
43480;BME280;29067;35.492;-97.520;2022-07-05T02:22:38;97033.27;;;31.71;27.84
43480;BME280;29067;35.492;-97.520;2022-07-05T02:25:07;97033.57;;;32.89;26.81
43480;BME280;29067;35.492;-97.520;2022-07-05T02:27:35;97032.54;;;31.57;27.74
43480;BME280;29067;35.492;-97.520;2022-07-05T02:30:04;97033.33;;;31.01;27.95
43480;BME280;29067;35.492;-97.520;2022-07-05T02:32:33;97034.70;;;30.74;28.06
43480;BME280;29067;35.492;-97.520;2022-07-05T02:35:01;97038.26;;;31.15;28.07
43480;BME280;29067;35.492;-97.520;2022-07-05T02:37:29;97040.24;;;31.09;27.76
43480;BME280;29067;35.492;-97.520;2022-07-05T02:39:57;97047.61;;;31.53;27.86
43480;BME280;29067;35.492;-97.520;2022-07-05T02:42:26;97051.40;;;31.26;27.67
43480;BME280;29067;35.492;-97.520;2022-07-05T02:44:54;97059.95;;;29.89;28.74
43480;BME280;29067;35.492;-97.520;2022-07-05T02:47:22;97060.57;;;29.83;28.77
43480;BME280;29067;35.492;-97.520;2022-07-05T02:49:51;97069.30;;;30.94;28.54
43480;BME280;29067;35.492;-97.520;2022-07-05T02:52:19;97064.71;;;31.40;28.23
43480;BME280;29067;35.492;-97.520;2022-07-05T02:54:47;97061.88;;;32.24;27.69
43480;BME280;29067;35.492;-97.520;2022-07-05T02:57:15;97063.19;;;30.54;28.38
43480;BME280;29067;35.492;-97.520;2022-07-05T02:59:43;97064.15;;;29.66;29.33
43480;BME280;29067;35.492;-97.520;2022-07-05T03:02:11;97067.24;;;31.26;28.32
43480;BME280;29067;35.492;-97.520;2022-07-05T03:04:40;97066.77;;;30.67;29.13
43480;BME280;29067;35.492;-97.520;2022-07-05T03:07:08;97070.12;;;29.67;29.00
43480;BME280;29067;35.492;-97.520;2022-07-05T03:09:36;97077.66;;;30.14;29.08
43480;BME280;29067;35.492;-97.520;2022-07-05T03:12:06;97077.27;;;30.15;29.50
43480;BME280;29067;35.492;-97.520;2022-07-05T03:14:34;97084.26;;;30.92;28.83
43480;BME280;29067;35.492;-97.520;2022-07-05T03:17:02;97088.12;;;31.10;29.03
43480;BME280;29067;35.492;-97.520;2022-07-05T03:19:30;97087.64;;;30.65;29.52
43480;BME280;29067;35.492;-97.520;2022-07-05T03:21:57;97089.43;;;29.36;29.94
43480;BME280;29067;35.492;-97.520;2022-07-05T03:24:26;97091.82;;;31.14;29.55
43480;BME280;29067;35.492;-97.520;2022-07-05T03:26:53;97093.21;;;29.16;30.64
43480;BME280;29067;35.492;-97.520;2022-07-05T03:29:22;97098.14;;;31.08;29.59
43480;BME280;29067;35.492;-97.520;2022-07-05T03:31:50;97101.16;;;31.15;29.32
43480;BME280;29067;35.492;-97.520;2022-07-05T03:34:18;97107.65;;;29.54;30.33
43480;BME280;29067;35.492;-97.520;2022-07-05T03:36:46;97108.08;;;30.16;30.39
43480;BME280;29067;35.492;-97.520;2022-07-05T03:39:14;97112.68;;;29.46;30.46
43480;BME280;29067;35.492;-97.520;2022-07-05T03:41:48;97116.81;;;29.15;30.81
43480;BME280;29067;35.492;-97.520;2022-07-05T03:44:16;97122.04;;;29.45;31.08
43480;BME280;29067;35.492;-97.520;2022-07-05T03:46:44;97123.65;;;28.07;32.15
43480;BME280;29067;35.492;-97.520;2022-07-05T03:49:11;97124.84;;;27.84;32.63
43480;BME280;29067;35.492;-97.520;2022-07-05T03:51:39;97128.34;;;28.35;32.72
43480;BME280;29067;35.492;-97.520;2022-07-05T03:54:07;97131.10;;;27.81;33.63
43480;BME280;29067;35.492;-97.520;2022-07-05T03:56:35;97125.48;;;28.70;32.79
43480;BME280;29067;35.492;-97.520;2022-07-05T03:59:04;97122.38;;;28.61;32.79
43480;BME280;29067;35.492;-97.520;2022-07-05T04:01:31;97123.98;;;28.94;32.55
43480;BME280;29067;35.492;-97.520;2022-07-05T04:03:59;97126.12;;;28.28;33.57
43480;BME280;29067;35.492;-97.520;2022-07-05T04:06:27;97131.01;;;27.75;34.38
43480;BME280;29067;35.492;-97.520;2022-07-05T04:08:56;97138.08;;;27.94;34.64
43480;BME280;29067;35.492;-97.520;2022-07-05T04:11:24;97133.87;;;28.53;34.34
43480;BME280;29067;35.492;-97.520;2022-07-05T04:13:52;97135.41;;;29.11;34.07
43480;BME280;29067;35.492;-97.520;2022-07-05T04:16:19;97131.57;;;28.58;34.77
43480;BME280;29067;35.492;-97.520;2022-07-05T04:18:47;97130.79;;;28.56;34.76
43480;BME280;29067;35.492;-97.520;2022-07-05T04:21:15;97135.76;;;28.63;34.95
43480;BME280;29067;35.492;-97.520;2022-07-05T04:23:43;97136.41;;;28.05;35.59
43480;BME280;29067;35.492;-97.520;2022-07-05T04:26:11;97131.09;;;28.62;35.24
43480;BME280;29067;35.492;-97.520;2022-07-05T04:28:39;97124.95;;;28.44;35.56
43480;BME280;29067;35.492;-97.520;2022-07-05T04:31:07;97126.91;;;27.06;37.05
43480;BME280;29067;35.492;-97.520;2022-07-05T04:33:35;97131.13;;;28.00;36.86
43480;BME280;29067;35.492;-97.520;2022-07-05T04:36:04;97134.54;;;27.98;36.98
43480;BME280;29067;35.492;-97.520;2022-07-05T04:38:32;97132.17;;;27.12;37.80
43480;BME280;29067;35.492;-97.520;2022-07-05T04:41:00;97133.59;;;28.17;37.45
43480;BME280;29067;35.492;-97.520;2022-07-05T04:43:28;97134.03;;;27.91;37.30
43480;BME280;29067;35.492;-97.520;2022-07-05T04:45:57;97132.16;;;28.55;37.22
43480;BME280;29067;35.492;-97.520;2022-07-05T04:48:25;97127.18;;;28.18;37.38
43480;BME280;29067;35.492;-97.520;2022-07-05T04:50:53;97129.85;;;27.63;38.01
43480;BME280;29067;35.492;-97.520;2022-07-05T04:53:22;97133.97;;;28.75;36.97
43480;BME280;29067;35.492;-97.520;2022-07-05T04:55:50;97135.78;;;27.70;37.21
43480;BME280;29067;35.492;-97.520;2022-07-05T04:58:18;97138.97;;;28.24;37.03
43480;BME280;29067;35.492;-97.520;2022-07-05T05:00:46;97136.79;;;28.74;36.15
43480;BME280;29067;35.492;-97.520;2022-07-05T05:03:14;97135.39;;;28.53;36.39
43480;BME280;29067;35.492;-97.520;2022-07-05T05:05:43;97133.96;;;28.28;36.57
43480;BME280;29067;35.492;-97.520;2022-07-05T05:08:11;97134.73;;;27.71;37.17
43480;BME280;29067;35.492;-97.520;2022-07-05T05:10:39;97137.98;;;27.37;37.25
43480;BME280;29067;35.492;-97.520;2022-07-05T05:13:07;97137.84;;;28.48;36.22
43480;BME280;29067;35.492;-97.520;2022-07-05T05:15:36;97137.53;;;28.85;35.96
43480;BME280;29067;35.492;-97.520;2022-07-05T05:18:04;97136.95;;;27.60;37.03
43480;BME280;29067;35.492;-97.520;2022-07-05T05:20:32;97135.77;;;28.69;36.90
43480;BME280;29067;35.492;-97.520;2022-07-05T05:23:00;97137.18;;;28.23;36.47
43480;BME280;29067;35.492;-97.520;2022-07-05T05:25:29;97138.23;;;27.58;37.14
43480;BME280;29067;35.492;-97.520;2022-07-05T05:27:57;97135.18;;;26.87;37.99
43480;BME280;29067;35.492;-97.520;2022-07-05T05:30:25;97134.63;;;27.31;37.29
43480;BME280;29067;35.492;-97.520;2022-07-05T05:32:54;97126.35;;;28.60;36.21
43480;BME280;29067;35.492;-97.520;2022-07-05T05:35:22;97126.51;;;28.52;35.92
43480;BME280;29067;35.492;-97.520;2022-07-05T05:37:52;97131.20;;;27.57;36.72
43480;BME280;29067;35.492;-97.520;2022-07-05T05:40:22;97132.09;;;27.50;36.77
43480;BME280;29067;35.492;-97.520;2022-07-05T05:42:50;97121.19;;;28.02;36.05
43480;BME280;29067;35.492;-97.520;2022-07-05T05:45:18;97118.97;;;28.22;35.16
43480;BME280;29067;35.492;-97.520;2022-07-05T05:47:47;97117.53;;;29.71;34.36
43480;BME280;29067;35.492;-97.520;2022-07-05T05:50:19;97112.59;;;29.37;34.10
43480;BME280;29067;35.492;-97.520;2022-07-05T05:52:48;97111.61;;;29.19;34.18
43480;BME280;29067;35.492;-97.520;2022-07-05T05:55:16;97108.78;;;27.48;35.62
43480;BME280;29067;35.492;-97.520;2022-07-05T05:57:44;97106.91;;;28.39;35.04
43480;BME280;29067;35.492;-97.520;2022-07-05T06:00:13;97103.02;;;27.91;35.40
43480;BME280;29067;35.492;-97.520;2022-07-05T06:02:42;97106.60;;;27.62;35.33
43480;BME280;29067;35.492;-97.520;2022-07-05T06:05:11;97109.67;;;28.35;35.40
43480;BME280;29067;35.492;-97.520;2022-07-05T06:07:44;97110.01;;;27.58;35.68
43480;BME280;29067;35.492;-97.520;2022-07-05T06:10:17;97104.43;;;28.54;35.28
43480;BME280;29067;35.492;-97.520;2022-07-05T06:12:46;97101.87;;;28.49;35.43
43480;BME280;29067;35.492;-97.520;2022-07-05T06:15:15;97106.94;;;28.42;35.34
43480;BME280;29067;35.492;-97.520;2022-07-05T06:17:43;97097.95;;;27.82;35.49
43480;BME280;29067;35.492;-97.520;2022-07-05T06:20:13;97098.54;;;27.51;36.53
43480;BME280;29067;35.492;-97.520;2022-07-05T06:22:42;97092.76;;;27.40;36.22
43480;BME280;29067;35.492;-97.520;2022-07-05T06:25:10;97093.96;;;28.27;35.65
43480;BME280;29067;35.492;-97.520;2022-07-05T06:27:39;97096.44;;;28.86;34.54
43480;BME280;29067;35.492;-97.520;2022-07-05T06:30:08;97099.70;;;29.56;33.73
43480;BME280;29067;35.492;-97.520;2022-07-05T06:32:36;97094.22;;;27.92;35.93
43480;BME280;29067;35.492;-97.520;2022-07-05T06:35:05;97094.31;;;26.58;36.30
43480;BME280;29067;35.492;-97.520;2022-07-05T06:37:42;97094.96;;;28.31;35.82
43480;BME280;29067;35.492;-97.520;2022-07-05T06:40:11;97095.66;;;28.49;35.19
43480;BME280;29067;35.492;-97.520;2022-07-05T06:42:40;97092.90;;;26.36;37.01
43480;BME280;29067;35.492;-97.520;2022-07-05T06:45:09;97092.31;;;26.63;37.13
43480;BME280;29067;35.492;-97.520;2022-07-05T06:47:38;97097.91;;;27.81;35.87
43480;BME280;29067;35.492;-97.520;2022-07-05T06:50:07;97099.48;;;26.63;37.31
43480;BME280;29067;35.492;-97.520;2022-07-05T06:52:35;97102.72;;;27.62;36.46
43480;BME280;29067;35.492;-97.520;2022-07-05T06:55:04;97097.93;;;28.46;35.81
43480;BME280;29067;35.492;-97.520;2022-07-05T06:57:32;97101.80;;;28.55;34.81
43480;BME280;29067;35.492;-97.520;2022-07-05T07:00:01;97100.20;;;27.81;36.23
43480;BME280;29067;35.492;-97.520;2022-07-05T07:02:29;97099.11;;;26.90;37.11
43480;BME280;29067;35.492;-97.520;2022-07-05T07:04:57;97099.09;;;27.22;36.43
43480;BME280;29067;35.492;-97.520;2022-07-05T07:07:25;97096.00;;;27.28;36.39
43480;BME280;29067;35.492;-97.520;2022-07-05T07:09:56;97102.75;;;26.37;37.76
43480;BME280;29067;35.492;-97.520;2022-07-05T07:12:25;97109.04;;;25.62;38.39
43480;BME280;29067;35.492;-97.520;2022-07-05T07:14:54;97100.38;;;26.42;37.74
43480;BME280;29067;35.492;-97.520;2022-07-05T07:17:22;97101.76;;;25.53;38.63
43480;BME280;29067;35.492;-97.520;2022-07-05T07:19:51;97099.84;;;26.89;37.44
43480;BME280;29067;35.492;-97.520;2022-07-05T07:22:19;97095.28;;;26.83;37.50
43480;BME280;29067;35.492;-97.520;2022-07-05T07:24:47;97093.62;;;28.20;36.27
43480;BME280;29067;35.492;-97.520;2022-07-05T07:27:15;97083.85;;;27.04;37.44
43480;BME280;29067;35.492;-97.520;2022-07-05T07:29:43;97090.13;;;27.43;37.05
43480;BME280;29067;35.492;-97.520;2022-07-05T07:32:12;97085.26;;;27.04;37.34
43480;BME280;29067;35.492;-97.520;2022-07-05T07:34:40;97089.73;;;26.44;38.05
43480;BME280;29067;35.492;-97.520;2022-07-05T07:37:08;97090.29;;;27.09;37.44
43480;BME280;29067;35.492;-97.520;2022-07-05T07:39:36;97088.97;;;27.04;37.48
43480;BME280;29067;35.492;-97.520;2022-07-05T07:42:05;97088.33;;;26.78;37.84
43480;BME280;29067;35.492;-97.520;2022-07-05T07:44:33;97093.70;;;26.88;37.71
43480;BME280;29067;35.492;-97.520;2022-07-05T07:47:02;97093.25;;;27.05;37.67
43480;BME280;29067;35.492;-97.520;2022-07-05T07:49:30;97093.28;;;27.25;37.61
43480;BME280;29067;35.492;-97.520;2022-07-05T07:51:57;97091.90;;;26.92;37.81
43480;BME280;29067;35.492;-97.520;2022-07-05T07:54:25;97083.18;;;27.40;37.32
43480;BME280;29067;35.492;-97.520;2022-07-05T07:56:52;97086.79;;;26.89;38.38
43480;BME280;29067;35.492;-97.520;2022-07-05T07:59:21;97092.80;;;25.87;38.93
43480;BME280;29067;35.492;-97.520;2022-07-05T08:01:49;97089.01;;;26.93;38.96
43480;BME280;29067;35.492;-97.520;2022-07-05T08:04:17;97081.52;;;27.80;37.11
43480;BME280;29067;35.492;-97.520;2022-07-05T08:06:45;97086.19;;;27.30;37.62
43480;BME280;29067;35.492;-97.520;2022-07-05T08:09:12;97076.00;;;26.68;38.28
43480;BME280;29067;35.492;-97.520;2022-07-05T08:11:40;97080.06;;;26.39;38.55
43480;BME280;29067;35.492;-97.520;2022-07-05T08:14:08;97086.70;;;26.31;39.57
43480;BME280;29067;35.492;-97.520;2022-07-05T08:16:36;97083.33;;;25.50;39.90
43480;BME280;29067;35.492;-97.520;2022-07-05T08:19:04;97086.51;;;26.52;39.28
43480;BME280;29067;35.492;-97.520;2022-07-05T08:21:33;97084.79;;;26.20;39.79
43480;BME280;29067;35.492;-97.520;2022-07-05T08:24:03;97080.53;;;26.67;38.40
43480;BME280;29067;35.492;-97.520;2022-07-05T08:26:31;97081.82;;;26.95;37.98
43480;BME280;29067;35.492;-97.520;2022-07-05T08:29:00;97085.77;;;25.95;38.96
43480;BME280;29067;35.492;-97.520;2022-07-05T08:31:32;97080.47;;;26.68;38.30
43480;BME280;29067;35.492;-97.520;2022-07-05T08:34:01;97077.70;;;26.54;38.36
43480;BME280;29067;35.492;-97.520;2022-07-05T08:36:29;97075.00;;;27.01;38.01
43480;BME280;29067;35.492;-97.520;2022-07-05T08:38:57;97074.66;;;25.80;39.19
43480;BME280;29067;35.492;-97.520;2022-07-05T08:41:26;97069.61;;;26.29;39.14
43480;BME280;29067;35.492;-97.520;2022-07-05T08:43:54;97066.83;;;25.89;39.95
43480;BME280;29067;35.492;-97.520;2022-07-05T08:46:25;97062.22;;;26.11;38.92
43480;BME280;29067;35.492;-97.520;2022-07-05T08:48:59;97057.37;;;26.63;38.43
43480;BME280;29067;35.492;-97.520;2022-07-05T08:51:28;97054.72;;;27.55;38.36
43480;BME280;29067;35.492;-97.520;2022-07-05T08:53:56;97051.66;;;26.25;38.85
43480;BME280;29067;35.492;-97.520;2022-07-05T08:56:24;97055.87;;;26.87;38.17
43480;BME280;29067;35.492;-97.520;2022-07-05T08:58:52;97058.32;;;26.48;38.56
43480;BME280;29067;35.492;-97.520;2022-07-05T09:01:20;97058.63;;;26.12;38.76
43480;BME280;29067;35.492;-97.520;2022-07-05T09:03:50;97058.54;;;25.50;39.64
43480;BME280;29067;35.492;-97.520;2022-07-05T09:06:20;97057.22;;;26.31;39.21
43480;BME280;29067;35.492;-97.520;2022-07-05T09:08:50;97059.02;;;25.88;39.22
43480;BME280;29067;35.492;-97.520;2022-07-05T09:11:25;97054.94;;;27.23;37.97
43480;BME280;29067;35.492;-97.520;2022-07-05T09:13:56;97056.13;;;26.38;38.57
43480;BME280;29067;35.492;-97.520;2022-07-05T09:16:25;97052.23;;;27.45;37.43
43480;BME280;29067;35.492;-97.520;2022-07-05T09:18:54;97055.22;;;25.80;38.66
43480;BME280;29067;35.492;-97.520;2022-07-05T09:21:24;97056.00;;;26.08;39.01
43480;BME280;29067;35.492;-97.520;2022-07-05T09:23:55;97058.33;;;26.28;38.93
43480;BME280;29067;35.492;-97.520;2022-07-05T09:26:32;97054.86;;;26.87;38.14
43480;BME280;29067;35.492;-97.520;2022-07-05T09:29:01;97055.32;;;27.85;37.22
43480;BME280;29067;35.492;-97.520;2022-07-05T09:31:31;97055.90;;;26.89;38.15
43480;BME280;29067;35.492;-97.520;2022-07-05T09:34:07;97056.72;;;25.35;39.91
43480;BME280;29067;35.492;-97.520;2022-07-05T09:36:53;97054.17;;;25.90;39.16
43480;BME280;29067;35.492;-97.520;2022-07-05T09:39:36;97052.90;;;26.38;38.70
43480;BME280;29067;35.492;-97.520;2022-07-05T09:42:21;97051.88;;;26.24;39.87
43480;BME280;29067;35.492;-97.520;2022-07-05T09:44:52;97053.69;;;26.23;39.07
43480;BME280;29067;35.492;-97.520;2022-07-05T09:47:21;97048.11;;;26.41;39.83
43480;BME280;29067;35.492;-97.520;2022-07-05T09:49:50;97049.75;;;26.31;39.80
43480;BME280;29067;35.492;-97.520;2022-07-05T09:52:35;97050.10;;;26.79;38.84
43480;BME280;29067;35.492;-97.520;2022-07-05T09:55:06;97049.66;;;26.07;39.44
43480;BME280;29067;35.492;-97.520;2022-07-05T09:57:36;97051.47;;;25.78;39.65
43480;BME280;29067;35.492;-97.520;2022-07-05T10:00:06;97047.70;;;26.77;38.89
43480;BME280;29067;35.492;-97.520;2022-07-05T10:02:36;97049.56;;;25.00;41.48
43480;BME280;29067;35.492;-97.520;2022-07-05T10:05:13;97048.38;;;25.51;40.98
43480;BME280;29067;35.492;-97.520;2022-07-05T10:07:43;97040.02;;;27.05;39.68
43480;BME280;29067;35.492;-97.520;2022-07-05T10:10:13;97041.02;;;26.74;39.01
43480;BME280;29067;35.492;-97.520;2022-07-05T10:12:42;97043.21;;;25.52;40.83
43480;BME280;29067;35.492;-97.520;2022-07-05T10:15:12;97040.30;;;26.47;39.44
43480;BME280;29067;35.492;-97.520;2022-07-05T10:17:42;97037.61;;;26.83;39.27
43480;BME280;29067;35.492;-97.520;2022-07-05T10:20:18;97039.99;;;25.13;40.98
43480;BME280;29067;35.492;-97.520;2022-07-05T10:22:48;97043.22;;;25.51;41.14
43480;BME280;29067;35.492;-97.520;2022-07-05T10:25:16;97037.68;;;26.44;40.15
43480;BME280;29067;35.492;-97.520;2022-07-05T10:27:44;97033.80;;;25.97;40.95
43480;BME280;29067;35.492;-97.520;2022-07-05T10:30:13;97034.13;;;25.15;41.71
43480;BME280;29067;35.492;-97.520;2022-07-05T10:32:42;97039.12;;;25.90;40.88
43480;BME280;29067;35.492;-97.520;2022-07-05T10:35:11;97032.34;;;26.55;40.21
43480;BME280;29067;35.492;-97.520;2022-07-05T10:37:39;97039.16;;;25.78;41.16
43480;BME280;29067;35.492;-97.520;2022-07-05T10:40:08;97039.43;;;25.93;40.85
43480;BME280;29067;35.492;-97.520;2022-07-05T10:42:40;97038.19;;;25.57;41.34
43480;BME280;29067;35.492;-97.520;2022-07-05T10:45:27;97039.01;;;25.57;40.96
43480;BME280;29067;35.492;-97.520;2022-07-05T10:48:28;97042.11;;;25.20;41.71
43480;BME280;29067;35.492;-97.520;2022-07-05T10:50:57;97038.42;;;26.58;40.42
43480;BME280;29067;35.492;-97.520;2022-07-05T10:53:26;97044.16;;;26.39;40.83
43480;BME280;29067;35.492;-97.520;2022-07-05T10:55:57;97049.56;;;25.53;41.95
43480;BME280;29067;35.492;-97.520;2022-07-05T10:58:27;97051.27;;;24.77;42.60
43480;BME280;29067;35.492;-97.520;2022-07-05T11:03:06;97053.93;;;24.62;42.94
43480;BME280;29067;35.492;-97.520;2022-07-05T11:05:35;97052.30;;;25.56;42.07
43480;BME280;29067;35.492;-97.520;2022-07-05T11:08:04;97055.92;;;25.07;43.17
43480;BME280;29067;35.492;-97.520;2022-07-05T11:10:31;97048.44;;;26.26;41.15
43480;BME280;29067;35.492;-97.520;2022-07-05T11:13:00;97056.39;;;24.85;42.72
43480;BME280;29067;35.492;-97.520;2022-07-05T11:16:36;97056.56;;;24.34;43.43
43480;BME280;29067;35.492;-97.520;2022-07-05T11:19:06;97055.69;;;25.78;42.03
43480;BME280;29067;35.492;-97.520;2022-07-05T11:21:35;97062.10;;;25.02;43.29
43480;BME280;29067;35.492;-97.520;2022-07-05T11:24:19;97060.32;;;24.88;43.30
43480;BME280;29067;35.492;-97.520;2022-07-05T11:26:48;97066.64;;;24.99;43.54
43480;BME280;29067;35.492;-97.520;2022-07-05T11:29:41;97069.19;;;24.90;42.97
43480;BME280;29067;35.492;-97.520;2022-07-05T11:32:12;97071.85;;;24.80;43.32
43480;BME280;29067;35.492;-97.520;2022-07-05T11:34:41;97075.78;;;24.69;43.37
43480;BME280;29067;35.492;-97.520;2022-07-05T11:37:20;97071.88;;;23.89;45.08
43480;BME280;29067;35.492;-97.520;2022-07-05T11:40:28;97083.04;;;25.15;43.77
43480;BME280;29067;35.492;-97.520;2022-07-05T11:42:56;97080.37;;;26.26;42.97
43480;BME280;29067;35.492;-97.520;2022-07-05T11:45:25;97083.45;;;25.19;44.17
43480;BME280;29067;35.492;-97.520;2022-07-05T11:47:55;97088.38;;;25.04;43.98
43480;BME280;29067;35.492;-97.520;2022-07-05T11:50:29;97087.68;;;25.70;43.83
43480;BME280;29067;35.492;-97.520;2022-07-05T11:52:58;97083.77;;;25.65;42.69
43480;BME280;29067;35.492;-97.520;2022-07-05T11:55:27;97082.47;;;25.66;42.82
43480;BME280;29067;35.492;-97.520;2022-07-05T11:57:56;97086.52;;;25.40;43.29
43480;BME280;29067;35.492;-97.520;2022-07-05T12:00:29;97085.28;;;24.45;45.54
43480;BME280;29067;35.492;-97.520;2022-07-05T12:02:58;97087.09;;;25.88;43.53
43480;BME280;29067;35.492;-97.520;2022-07-05T12:05:33;97099.36;;;25.83;44.38
43480;BME280;29067;35.492;-97.520;2022-07-05T12:08:01;97107.73;;;24.99;44.86
43480;BME280;29067;35.492;-97.520;2022-07-05T12:10:30;97107.02;;;23.91;46.28
43480;BME280;29067;35.492;-97.520;2022-07-05T12:13:04;97105.20;;;24.69;45.23
43480;BME280;29067;35.492;-97.520;2022-07-05T12:15:33;97110.31;;;24.40;45.69
43480;BME280;29067;35.492;-97.520;2022-07-05T12:18:02;97104.59;;;26.09;43.99
43480;BME280;29067;35.492;-97.520;2022-07-05T12:20:32;97106.92;;;25.47;45.43
43480;BME280;29067;35.492;-97.520;2022-07-05T12:23:00;97110.33;;;25.24;44.70
43480;BME280;29067;35.492;-97.520;2022-07-05T12:25:30;97113.69;;;25.51;44.98
43480;BME280;29067;35.492;-97.520;2022-07-05T12:28:01;97114.31;;;24.55;47.12
43480;BME280;29067;35.492;-97.520;2022-07-05T12:30:31;97116.56;;;25.87;44.91
43480;BME280;29067;35.492;-97.520;2022-07-05T12:33:01;97120.07;;;25.38;45.20
43480;BME280;29067;35.492;-97.520;2022-07-05T12:35:32;97122.47;;;25.68;44.61
43480;BME280;29067;35.492;-97.520;2022-07-05T12:38:05;97122.88;;;24.10;48.20
43480;BME280;29067;35.492;-97.520;2022-07-05T12:40:35;97124.63;;;24.71;46.80
43480;BME280;29067;35.492;-97.520;2022-07-05T12:43:05;97125.95;;;24.96;46.59
43480;BME280;29067;35.492;-97.520;2022-07-05T12:45:33;97126.80;;;25.71;45.53
43480;BME280;29067;35.492;-97.520;2022-07-05T12:48:04;97125.96;;;24.83;46.75
43480;BME280;29067;35.492;-97.520;2022-07-05T12:50:45;97128.80;;;24.90;47.09
43480;BME280;29067;35.492;-97.520;2022-07-05T12:53:14;97133.23;;;25.03;46.19
43480;BME280;29067;35.492;-97.520;2022-07-05T12:55:42;97141.44;;;25.46;45.84